createdAt,value
2022-12-14T00:00:27.168Z,13.80
2022-12-14T00:03:23.493Z,13.10
2022-12-14T00:05:59.453Z,12.80
2022-12-14T00:08:41.384Z,12.40
2022-12-14T00:11:19.899Z,13.50
2022-12-14T00:14:00.631Z,12.50
2022-12-14T00:16:38.614Z,12.00
2022-12-14T00:19:17.392Z,12.20
2022-12-14T00:21:53.381Z,10.50
2022-12-14T00:24:29.206Z,11.90
2022-12-14T00:27:05.213Z,12.80
2022-12-14T00:29:41.129Z,10.20
2022-12-14T00:32:16.904Z,13.20
2022-12-14T00:34:52.716Z,12.70
2022-12-14T00:37:28.695Z,12.90
2022-12-14T00:40:04.988Z,12.00
2022-12-14T00:42:41.104Z,12.50
2022-12-14T00:45:17.778Z,11.50
2022-12-14T00:47:53.525Z,10.60
2022-12-14T00:50:29.444Z,12.00
2022-12-14T00:53:06.086Z,12.20
2022-12-14T00:55:49.091Z,10.30
2022-12-14T00:58:28.005Z,11.90
2022-12-14T01:01:12.541Z,11.20
2022-12-14T01:03:49.102Z,11.80
2022-12-14T01:06:27.436Z,11.70
2022-12-14T01:09:03.605Z,12.20
2022-12-14T01:11:39.749Z,11.20
2022-12-14T01:14:21.375Z,11.70
2022-12-14T01:16:58.020Z,12.30
2022-12-14T01:19:34.694Z,11.70
2022-12-14T01:22:11.377Z,12.00
2022-12-14T01:24:49.291Z,12.90
2022-12-14T01:27:25.217Z,13.20
2022-12-14T01:30:00.999Z,15.70
2022-12-14T01:32:38.563Z,15.00
2022-12-14T01:35:15.074Z,14.20
2022-12-14T01:37:50.887Z,13.40
2022-12-14T01:40:26.853Z,13.80
2022-12-14T01:43:02.702Z,13.70
2022-12-14T01:45:38.709Z,16.00
2022-12-14T01:48:17.372Z,14.50
2022-12-14T01:50:53.497Z,15.00
2022-12-14T01:53:29.718Z,15.30
2022-12-14T01:56:06.819Z,15.70
2022-12-14T01:58:42.708Z,17.50
2022-12-14T02:01:20.728Z,16.40
2022-12-14T02:03:57.903Z,17.30
2022-12-14T02:06:39.371Z,16.10
2022-12-14T02:09:26.500Z,15.70
2022-12-14T02:12:08.700Z,16.20
2022-12-14T02:14:45.426Z,16.90
2022-12-14T02:17:22.678Z,19.20
2022-12-14T02:20:00.828Z,19.00
2022-12-14T02:23:40.395Z,19.40
2022-12-14T02:26:55.641Z,18.00
2022-12-14T02:30:11.772Z,18.80
2022-12-14T02:33:38.511Z,19.80
2022-12-14T02:36:27.323Z,17.40
2022-12-14T02:39:18.381Z,18.90
2022-12-14T02:42:08.956Z,18.00
2022-12-14T02:45:03.244Z,18.70
2022-12-14T02:47:54.481Z,17.60
2022-12-14T02:50:44.364Z,19.40
2022-12-14T02:53:30.441Z,18.50
2022-12-14T02:56:16.628Z,20.70
2022-12-14T02:58:54.016Z,19.10
2022-12-14T03:01:36.052Z,18.10
2022-12-14T03:04:12.502Z,20.20
2022-12-14T03:07:04.582Z,20.60
2022-12-14T03:09:40.367Z,20.20
2022-12-14T03:12:20.868Z,20.90
2022-12-14T03:15:01.968Z,22.30
2022-12-14T03:17:39.678Z,20.30
2022-12-14T03:20:23.711Z,19.50
2022-12-14T03:23:08.774Z,19.00
2022-12-14T03:25:54.041Z,19.60
2022-12-14T03:28:38.184Z,19.10
2022-12-14T03:31:22.646Z,19.20
2022-12-14T03:34:04.015Z,18.20
2022-12-14T03:36:47.796Z,20.40
2022-12-14T03:39:31.012Z,20.40
2022-12-14T03:42:18.954Z,18.10
2022-12-14T03:45:11.927Z,17.80
2022-12-14T03:48:05.049Z,18.30
2022-12-14T03:50:50.166Z,19.10
2022-12-14T03:53:39.587Z,19.50
2022-12-14T03:56:23.047Z,19.20
2022-12-14T03:59:11.704Z,19.30
2022-12-14T04:02:00.456Z,19.70
2022-12-14T04:04:49.093Z,18.90
2022-12-14T04:07:36.297Z,18.20
2022-12-14T04:10:37.883Z,18.00
2022-12-14T04:13:38.766Z,17.70
2022-12-14T04:16:42.936Z,19.70
2022-12-14T04:19:30.495Z,20.00
2022-12-14T04:22:13.451Z,19.10
2022-12-14T04:25:16.895Z,18.10
2022-12-14T04:27:59.669Z,26.30
2022-12-14T04:30:41.500Z,20.90
2022-12-14T04:33:39.146Z,19.00
2022-12-14T04:36:19.405Z,20.80
2022-12-14T04:39:04.103Z,19.20
2022-12-14T04:41:45.116Z,19.70
2022-12-14T04:44:30.231Z,20.30
2022-12-14T04:47:10.042Z,18.60
2022-12-14T04:49:54.672Z,20.00
2022-12-14T04:52:37.935Z,19.50
2022-12-14T04:55:24.771Z,20.10
2022-12-14T04:58:06.631Z,19.40
2022-12-14T05:01:13.176Z,18.20
2022-12-14T05:04:08.255Z,20.50
2022-12-14T05:07:06.066Z,19.40
2022-12-14T05:09:55.057Z,20.80
2022-12-14T05:12:43.001Z,20.50
2022-12-14T05:15:26.719Z,21.40
2022-12-14T05:18:06.937Z,19.70
2022-12-14T05:20:42.843Z,18.40
2022-12-14T05:23:19.721Z,21.60
2022-12-14T05:25:55.676Z,19.90
2022-12-14T05:28:32.351Z,18.10
2022-12-14T05:31:08.711Z,21.50
2022-12-14T05:33:44.539Z,20.30
2022-12-14T05:36:20.731Z,22.40
2022-12-14T05:38:56.620Z,21.00
2022-12-14T05:41:32.386Z,21.40
2022-12-14T05:44:09.005Z,22.50
2022-12-14T05:46:44.815Z,20.60
2022-12-14T05:49:21.538Z,22.10
2022-12-14T05:51:57.921Z,20.50
2022-12-14T05:54:33.861Z,22.70
2022-12-14T05:57:09.794Z,22.80
2022-12-14T05:59:45.573Z,21.90
2022-12-14T06:02:21.688Z,22.50
2022-12-14T06:04:57.813Z,22.00
2022-12-14T06:07:33.850Z,22.80
2022-12-14T06:10:11.559Z,21.60
2022-12-14T06:12:47.539Z,20.40
2022-12-14T06:15:23.566Z,21.60
2022-12-14T06:17:59.429Z,20.30
2022-12-14T06:20:35.288Z,19.10
2022-12-14T06:23:11.180Z,20.70
2022-12-14T06:25:53.731Z,20.60
2022-12-14T06:28:29.751Z,22.80
2022-12-14T06:31:06.689Z,19.40
2022-12-14T06:33:42.730Z,24.50
2022-12-14T06:36:24.698Z,21.00
2022-12-14T06:39:04.595Z,20.40
2022-12-14T06:41:41.364Z,21.80
2022-12-14T06:44:18.365Z,23.00
2022-12-14T06:46:54.438Z,21.60
2022-12-14T06:49:30.668Z,22.10
2022-12-14T06:52:06.773Z,22.10
2022-12-14T06:54:43.075Z,23.50
2022-12-14T06:57:19.090Z,22.90
2022-12-14T06:59:55.094Z,22.60
2022-12-14T07:02:31.209Z,22.50
2022-12-14T07:05:08.638Z,22.70
2022-12-14T07:07:45.347Z,22.40
2022-12-14T07:10:21.968Z,22.80
2022-12-14T07:12:57.942Z,23.40
2022-12-14T07:15:33.998Z,22.50
2022-12-14T07:18:09.990Z,20.80
2022-12-14T07:20:46.212Z,22.00
2022-12-14T07:23:26.289Z,50.90
2022-12-14T07:28:45.891Z,20.30
2022-12-14T07:31:27.833Z,18.90
2022-12-14T07:34:04.387Z,20.60
2022-12-14T07:36:40.594Z,21.50
2022-12-14T07:39:17.699Z,21.30
2022-12-14T07:41:54.874Z,21.30
2022-12-14T07:44:30.735Z,23.20
2022-12-14T07:47:11.443Z,19.40
2022-12-14T07:49:50.098Z,20.50
2022-12-14T07:52:26.152Z,19.70
2022-12-14T07:55:02.132Z,64.20
2022-12-14T07:57:38.663Z,18.50
2022-12-14T08:00:18.360Z,17.80
2022-12-14T08:02:57.580Z,20.20
2022-12-14T08:05:34.783Z,18.40
2022-12-14T08:08:11.510Z,18.60
2022-12-14T08:10:50.959Z,19.20
2022-12-14T08:13:27.401Z,18.90
2022-12-14T08:16:09.911Z,19.10
2022-12-14T08:18:47.314Z,20.60
2022-12-14T08:21:25.001Z,17.90
2022-12-14T08:24:01.666Z,21.70
2022-12-14T08:26:37.930Z,18.60
2022-12-14T08:29:15.744Z,20.20
2022-12-14T08:31:51.631Z,20.30
2022-12-14T08:34:27.962Z,19.90
2022-12-14T08:37:03.934Z,20.60
2022-12-14T08:39:40.191Z,19.90
2022-12-14T08:42:16.139Z,23.40
2022-12-14T08:44:52.309Z,21.10
2022-12-14T08:47:28.161Z,23.30
2022-12-14T08:50:04.430Z,21.70
2022-12-14T08:52:40.377Z,24.30
2022-12-14T08:55:22.398Z,20.60
2022-12-14T08:58:01.726Z,22.10
2022-12-14T09:00:38.883Z,22.80
2022-12-14T09:03:14.995Z,21.20
2022-12-14T09:05:51.133Z,22.30
2022-12-14T09:08:27.027Z,21.10
2022-12-14T09:11:05.283Z,23.50
2022-12-14T09:13:41.583Z,21.80
2022-12-14T09:16:21.183Z,20.90
2022-12-14T09:18:57.646Z,19.60
2022-12-14T09:21:33.459Z,20.70
2022-12-14T09:24:12.196Z,21.10
2022-12-14T09:26:49.056Z,25.10
2022-12-14T09:29:24.931Z,24.30
2022-12-14T09:32:01.052Z,23.90
2022-12-14T09:34:36.763Z,25.60
2022-12-14T09:37:13.335Z,22.60
2022-12-14T09:39:49.496Z,22.90
2022-12-14T09:42:50.657Z,25.40
2022-12-14T09:45:34.033Z,23.00
2022-12-14T09:48:20.591Z,25.30
2022-12-14T09:50:57.600Z,22.30
2022-12-14T09:53:35.609Z,25.10
2022-12-14T09:56:23.134Z,26.80
2022-12-14T09:59:03.830Z,26.40
2022-12-14T10:05:20.101Z,23.80
2022-12-14T10:08:09.156Z,24.70
2022-12-14T10:10:56.027Z,20.60
2022-12-14T10:13:49.713Z,23.60
2022-12-14T10:16:38.651Z,19.70
2022-12-14T10:19:37.216Z,20.80
2022-12-14T10:22:20.179Z,17.10
2022-12-14T10:25:10.968Z,21.70
2022-12-14T10:28:13.306Z,21.70
2022-12-14T10:30:58.486Z,21.20
2022-12-14T10:33:36.508Z,21.40
2022-12-14T10:36:28.919Z,22.30
2022-12-14T10:39:22.272Z,20.60
2022-12-14T10:42:11.843Z,19.80
2022-12-14T10:45:39.101Z,23.30
2022-12-14T10:48:39.967Z,18.20
2022-12-14T10:51:23.596Z,22.20
2022-12-14T10:54:11.695Z,17.20
2022-12-14T10:56:50.782Z,23.90
2022-12-14T10:59:50.797Z,23.40
2022-12-14T11:02:42.380Z,21.50
2022-12-14T11:05:37.524Z,24.00
2022-12-14T11:08:40.657Z,20.80
2022-12-14T11:11:25.047Z,19.40
2022-12-14T11:14:15.894Z,24.10
2022-12-14T11:16:52.152Z,26.40
2022-12-14T11:19:29.952Z,26.20
2022-12-14T11:22:22.569Z,24.20
2022-12-14T11:24:59.215Z,28.40
2022-12-14T11:27:36.195Z,25.70
2022-12-14T11:30:20.769Z,27.30
2022-12-14T11:32:57.194Z,24.60
2022-12-14T11:35:33.872Z,22.30
2022-12-14T11:38:16.857Z,23.60
2022-12-14T11:40:53.178Z,23.20
2022-12-14T11:43:38.725Z,24.20
2022-12-14T11:46:15.321Z,26.90
2022-12-14T11:48:53.924Z,24.00
2022-12-14T11:51:29.997Z,23.90
2022-12-14T11:54:10.082Z,29.00
2022-12-14T11:56:46.286Z,25.80
2022-12-14T11:59:24.493Z,25.50
2022-12-14T12:02:16.784Z,21.50
2022-12-14T12:05:03.808Z,24.10
2022-12-14T12:07:44.648Z,26.00
2022-12-14T12:10:26.881Z,26.50
2022-12-14T12:13:06.467Z,24.50
2022-12-14T12:15:50.126Z,23.60
2022-12-14T12:18:40.338Z,22.70
2022-12-14T12:21:28.798Z,27.30
2022-12-14T12:24:13.330Z,26.60
2022-12-14T12:26:55.923Z,24.90
2022-12-14T12:29:42.046Z,28.10
2022-12-14T12:32:26.071Z,27.80
2022-12-14T12:35:12.200Z,28.00
2022-12-14T12:37:56.317Z,25.30
2022-12-14T12:40:40.324Z,25.40
2022-12-14T12:43:29.617Z,27.00
2022-12-14T12:46:15.685Z,49.10
2022-12-14T12:48:59.755Z,31.20
2022-12-14T12:51:51.290Z,28.20
2022-12-14T12:54:37.349Z,33.50
2022-12-14T12:57:18.342Z,30.50
2022-12-14T12:59:57.598Z,27.20
2022-12-14T13:02:40.174Z,29.20
2022-12-14T13:08:32.065Z,31.60
2022-12-14T13:11:26.853Z,29.00
2022-12-14T13:14:23.706Z,33.40
2022-12-14T13:17:03.931Z,33.10
2022-12-14T13:19:50.979Z,31.20
2022-12-14T13:22:36.135Z,29.80
2022-12-14T13:25:23.378Z,27.40
2022-12-14T13:28:51.228Z,31.00
2022-12-14T13:31:46.295Z,27.10
2022-12-14T13:34:39.773Z,32.70
2022-12-14T13:37:59.193Z,34.60
2022-12-14T13:41:06.467Z,32.80
2022-12-14T13:44:18.310Z,32.30
2022-12-14T13:47:13.998Z,31.20
2022-12-14T13:53:02.912Z,32.20
2022-12-14T13:55:51.900Z,34.40
2022-12-14T13:58:38.775Z,31.10
2022-12-14T14:01:57.405Z,29.70
2022-12-14T14:04:36.592Z,30.10
2022-12-14T14:07:58.214Z,31.50
2022-12-14T14:10:41.732Z,32.50
2022-12-14T14:14:11.320Z,30.20
2022-12-14T14:16:56.132Z,39.80
2022-12-14T14:19:39.413Z,32.30
2022-12-14T14:22:28.350Z,34.80
2022-12-14T14:25:27.855Z,31.80
2022-12-14T14:28:05.137Z,29.50
2022-12-14T14:30:51.371Z,33.20
2022-12-14T14:33:46.034Z,36.40
2022-12-14T14:36:33.602Z,33.00
2022-12-14T14:42:41.413Z,36.50
2022-12-14T14:45:37.812Z,31.80
2022-12-14T14:48:33.824Z,30.30
2022-12-14T14:51:25.380Z,33.50
2022-12-14T14:58:04.544Z,34.10
2022-12-14T15:00:53.115Z,32.40
2022-12-14T15:03:46.914Z,35.70
2022-12-14T15:06:29.634Z,35.70
2022-12-14T15:09:24.999Z,37.10
2022-12-14T15:12:20.996Z,35.40
2022-12-14T15:15:04.820Z,36.90
2022-12-14T15:17:40.988Z,35.70
2022-12-14T15:20:29.837Z,36.50
2022-12-14T15:23:08.647Z,36.40
2022-12-14T15:25:46.526Z,32.60
2022-12-14T15:28:30.412Z,36.30
2022-12-14T15:31:07.016Z,33.50
2022-12-14T15:33:48.156Z,35.90
2022-12-14T15:36:29.445Z,33.50
2022-12-14T15:39:05.911Z,33.20
2022-12-14T15:41:42.018Z,36.00
2022-12-14T15:44:25.839Z,35.10
2022-12-14T15:47:02.243Z,35.00
2022-12-14T15:49:39.793Z,32.60
2022-12-14T15:52:16.634Z,36.80
2022-12-14T15:54:52.953Z,34.20
2022-12-14T15:57:29.169Z,33.70
2022-12-14T16:00:11.268Z,32.90
2022-12-14T16:02:47.778Z,31.10
2022-12-14T16:05:36.970Z,30.50
2022-12-14T16:08:16.392Z,31.70
2022-12-14T16:11:00.582Z,32.00
2022-12-14T16:13:41.953Z,30.10
2022-12-14T16:16:19.094Z,31.60
2022-12-14T16:19:08.902Z,28.10
2022-12-14T16:22:20.178Z,32.70
2022-12-14T16:25:27.237Z,28.60
2022-12-14T16:28:27.469Z,30.10
2022-12-14T16:31:10.024Z,41.10
2022-12-14T16:33:50.113Z,24.10
2022-12-14T16:36:29.780Z,23.40
2022-12-14T16:39:16.306Z,23.10
2022-12-14T16:42:01.711Z,21.50
2022-12-14T16:44:44.525Z,19.20
2022-12-14T16:48:09.596Z,22.00
2022-12-14T16:50:56.906Z,21.00
2022-12-14T16:53:35.650Z,18.00
2022-12-14T16:56:22.490Z,19.90
2022-12-14T16:59:06.788Z,19.80
2022-12-14T17:01:50.186Z,19.80
2022-12-14T17:04:35.872Z,15.70
2022-12-14T17:07:19.949Z,15.70
2022-12-14T17:09:57.023Z,15.30
2022-12-14T17:12:33.345Z,18.00
2022-12-14T17:15:13.286Z,13.60
2022-12-14T17:17:53.387Z,16.20
2022-12-14T17:20:36.308Z,13.40
2022-12-14T17:23:19.554Z,13.60
2022-12-14T17:25:55.791Z,13.00
2022-12-14T17:28:35.581Z,10.40
2022-12-14T17:31:22.311Z,12.00
2022-12-14T17:33:59.461Z,10.10
2022-12-14T17:36:35.523Z,9.60
2022-12-14T17:39:11.945Z,10.00
2022-12-14T17:41:50.275Z,9.60
2022-12-14T17:44:26.726Z,9.20
2022-12-14T17:47:02.989Z,9.40
2022-12-14T17:49:39.410Z,10.80
2022-12-14T17:52:27.082Z,9.20
2022-12-14T17:55:03.315Z,10.40
2022-12-14T17:57:39.298Z,9.10
2022-12-14T18:00:39.927Z,10.40
2022-12-14T18:03:18.886Z,9.50
2022-12-14T18:05:55.637Z,9.70
2022-12-14T18:08:31.966Z,10.10
2022-12-14T18:11:13.664Z,10.20
2022-12-14T18:13:50.548Z,9.40
2022-12-14T18:16:29.276Z,10.10
2022-12-14T18:19:05.496Z,9.70
2022-12-14T18:21:41.591Z,9.50
2022-12-14T18:24:24.180Z,9.80
2022-12-14T18:27:03.639Z,11.40
2022-12-14T18:29:39.975Z,13.00
2022-12-14T18:32:17.597Z,10.20
2022-12-14T18:34:54.046Z,11.40
2022-12-14T18:37:32.906Z,10.70
2022-12-14T18:40:13.739Z,11.30
2022-12-14T18:42:50.561Z,10.90
2022-12-14T18:45:29.968Z,11.30
2022-12-14T18:48:07.119Z,9.30
2022-12-14T18:50:44.751Z,11.30
2022-12-14T18:53:24.142Z,10.80
2022-12-14T18:56:00.449Z,11.50
2022-12-14T18:58:36.812Z,10.60
2022-12-14T19:01:19.486Z,9.80
2022-12-14T19:03:56.336Z,10.80
2022-12-14T19:06:43.913Z,10.30
2022-12-14T19:09:21.195Z,10.80
2022-12-14T19:11:57.079Z,11.00
2022-12-14T19:14:34.641Z,9.80
2022-12-14T19:17:11.137Z,10.50
2022-12-14T19:19:47.186Z,9.60
2022-12-14T19:22:27.262Z,10.10
2022-12-14T19:25:03.415Z,9.00
2022-12-14T19:30:37.312Z,9.50
2022-12-14T19:33:15.012Z,10.10
2022-12-14T19:35:51.374Z,8.90
2022-12-14T19:38:28.562Z,9.30
2022-12-14T19:41:08.680Z,11.10
2022-12-14T19:43:45.028Z,11.70
2022-12-14T19:46:21.288Z,9.80
2022-12-14T19:48:59.867Z,10.90
2022-12-14T19:51:40.043Z,10.70
2022-12-14T19:54:21.278Z,11.40
2022-12-14T19:57:03.683Z,10.70
2022-12-14T19:59:50.148Z,10.80
2022-12-14T20:02:27.443Z,10.50
2022-12-14T20:05:10.394Z,11.00
2022-12-14T20:07:47.080Z,10.40
2022-12-14T20:10:30.494Z,10.80
2022-12-14T20:13:09.618Z,11.20
2022-12-14T20:15:58.387Z,11.00
2022-12-14T20:18:39.657Z,10.60
2022-12-14T20:21:22.067Z,9.20
2022-12-14T20:24:00.809Z,10.70
2022-12-14T20:26:37.082Z,10.10
2022-12-14T20:29:14.096Z,10.60
2022-12-14T20:31:50.734Z,9.30
2022-12-14T20:34:26.927Z,10.40
2022-12-14T20:37:03.080Z,10.90
2022-12-14T20:39:39.376Z,10.90
2022-12-14T20:42:15.847Z,10.40
2022-12-14T20:44:51.748Z,11.90
2022-12-14T20:47:27.796Z,13.30
2022-12-14T20:50:04.107Z,10.90
2022-12-14T20:52:39.976Z,11.50
2022-12-14T20:55:16.153Z,12.30
2022-12-14T20:57:52.198Z,11.90
2022-12-14T21:00:29.007Z,11.50
2022-12-14T21:03:05.564Z,12.10
2022-12-14T21:05:46.862Z,11.30
2022-12-14T21:08:22.761Z,11.80
2022-12-14T21:11:20.021Z,10.20
2022-12-14T21:13:56.589Z,11.30
2022-12-14T21:16:32.518Z,11.30
2022-12-14T21:19:09.314Z,11.20
2022-12-14T21:21:53.040Z,10.90
2022-12-14T21:25:01.186Z,9.40
2022-12-14T21:27:30.389Z,11.80
2022-12-14T21:30:10.049Z,10.80
2022-12-14T21:32:48.415Z,9.90
2022-12-14T21:35:25.899Z,12.70
2022-12-14T21:38:02.056Z,12.60
2022-12-14T21:40:55.858Z,12.40
2022-12-14T21:43:32.340Z,12.10
2022-12-14T21:46:09.066Z,11.70
2022-12-14T21:48:45.931Z,12.30
2022-12-14T21:51:23.749Z,12.40
2022-12-14T21:54:00.581Z,12.40
2022-12-14T21:56:57.055Z,12.80
2022-12-14T21:59:36.161Z,11.40
2022-12-14T22:02:16.838Z,11.30
2022-12-14T22:04:56.455Z,10.60
2022-12-14T22:07:37.881Z,11.00
2022-12-14T22:10:14.204Z,11.30
2022-12-14T22:12:50.176Z,10.70
2022-12-14T22:15:26.323Z,11.30
2022-12-14T22:18:02.508Z,10.80
2022-12-14T22:20:38.383Z,9.70
2022-12-14T22:23:14.487Z,66.80
2022-12-14T22:25:55.400Z,18.90
2022-12-14T22:28:31.343Z,18.60
2022-12-14T22:31:08.731Z,23.00
2022-12-14T22:33:45.880Z,11.70
2022-12-14T22:36:26.547Z,13.20
2022-12-14T22:39:03.434Z,13.50
2022-12-14T22:41:39.685Z,13.10
2022-12-14T22:44:17.054Z,12.60
2022-12-14T22:46:53.169Z,15.90
2022-12-14T22:49:30.040Z,22.80
2022-12-14T22:52:06.104Z,27.50
2022-12-14T22:54:43.591Z,15.70
2022-12-14T22:57:26.519Z,18.40
2022-12-14T23:00:11.486Z,13.40
2022-12-14T23:02:48.992Z,13.00
2022-12-14T23:05:25.436Z,12.10
2022-12-14T23:08:01.396Z,12.50
2022-12-14T23:10:55.808Z,22.50
2022-12-14T23:13:49.288Z,14.00
2022-12-14T23:16:42.985Z,17.80
2022-12-14T23:19:36.694Z,10.80
2022-12-14T23:22:30.415Z,12.00
2022-12-14T23:25:25.304Z,12.10
2022-12-14T23:28:19.879Z,11.30
2022-12-14T23:31:15.035Z,11.40
2022-12-14T23:34:09.043Z,11.00
2022-12-14T23:37:02.907Z,12.00
2022-12-14T23:39:57.343Z,10.60
2022-12-14T23:42:50.944Z,13.10
2022-12-14T23:45:44.674Z,15.90
2022-12-14T23:48:38.265Z,15.50
2022-12-14T23:51:32.223Z,15.30
2022-12-14T23:54:26.097Z,14.20
2022-12-14T23:57:21.048Z,13.70
